PWSweather.com
Personal Weather Stations
Station Observations
NYERIN
South Erin, Erin, NY 14838-9545

South ErinErin, NY 14838-9545

Lat: 42.150605, Lon: -76.654038

Elevation: 1663

Station Type: Davis VP Pro II

http://southerin-ny.org/wx.php

Latest ConditionsUpdated 6:22:01 PM EDT Saturday, May 30, 2015
Currently Today's Max Today's Min Today's Average
Temperature 75.3°F24.1°C 82.3°F27.9°C 67.3°F19.6°C 72.6°F22.6°C
Dew Point 69.4°F20.8°C 72.2°F22.3°C 63.3°F17.4°C 67.9°F19.9°C
Winds 3.9 mph SE6.3 kmh SE 6.7 mph S10.8 kmh S - 2.3 mph 3.7 kmh
Wind Gusts 6.0 mph9.7 kmh 15.0 mph24.1 kmh - -
Humidity 82% 97% 66% 86%
Pressure 29.92 in1013.2 mb 30.09 in1019.0 mb 29.92 in1013.2 mb -
Precipitation - 0.01 in0.3 mm - -
Hour Temp Dew Point Humidity Winds Wind Gusts Pressure Precip Precip Rate Daily Precip Total
06:22 PM 75.3°F24.1°C 69.4°F20.8°C 82% 3.9 mph SE6.3 kmh SE 6.0 mph9.7 kmh 29.92 in1013.2 mb - 0.00 in0.0 mm 0.01 in0.3 mm
06:12 PM 74.9°F23.8°C 69.0°F20.6°C 82% 1.7 mph S2.7 kmh S 3.0 mph4.8 kmh 29.92 in1013.2 mb - 0.00 in0.0 mm 0.01 in0.3 mm
06:02 PM 76.1°F24.5°C 69.4°F20.8°C 80% 5.3 mph SW8.5 kmh SW 15.0 mph24.1 kmh 29.93 in1013.5 mb - 0.00 in0.0 mm 0.01 in0.3 mm
05:52 PM 76.7°F24.8°C 69.7°F20.9°C 79% 3.0 mph WSW4.8 kmh WSW 7.0 mph11.3 kmh 29.92 in1013.2 mb - 0.00 in0.0 mm 0.01 in0.3 mm
05:42 PM 75.4°F24.1°C 69.5°F20.8°C 82% 0.5 mph SSE0.8 kmh SSE 4.0 mph6.4 kmh 29.93 in1013.5 mb - 0.00 in0.0 mm 0.01 in0.3 mm
05:32 PM 76.7°F24.8°C 69.7°F20.9°C 79% 5.8 mph S9.3 kmh S 14.0 mph22.5 kmh 29.94 in1013.9 mb - 0.00 in0.0 mm 0.01 in0.3 mm
05:22 PM 76.3°F24.6°C 69.3°F20.7°C 79% 1.0 mph SSW1.6 kmh SSW 4.0 mph6.4 kmh 29.93 in1013.5 mb - 0.00 in0.0 mm 0.01 in0.3 mm
05:12 PM 76.9°F24.9°C 70.6°F21.4°C 81% 4.1 mph S6.6 kmh S 12.0 mph19.3 kmh 29.94 in1013.9 mb - 0.00 in0.0 mm 0.01 in0.3 mm
05:02 PM 75.4°F24.1°C 70.2°F21.2°C 84% 3.7 mph SW6.0 kmh SW 8.0 mph12.9 kmh 29.94 in1013.9 mb - 0.00 in0.0 mm 0.01 in0.3 mm
04:52 PM 76.0°F24.4°C 69.7°F20.9°C 81% 3.4 mph SSW5.5 kmh SSW 7.0 mph11.3 kmh 29.94 in1013.9 mb - 0.00 in0.0 mm 0.01 in0.3 mm
04:42 PM 77.2°F25.1°C 70.2°F21.2°C 79% 4.5 mph SSW7.2 kmh SSW 6.0 mph9.7 kmh 29.94 in1013.9 mb - 0.00 in0.0 mm 0.01 in0.3 mm
04:32 PM 77.4°F25.2°C 71.1°F21.7°C 81% 2.8 mph S4.5 kmh S 6.0 mph9.7 kmh 29.95 in1014.2 mb - 0.00 in0.0 mm 0.01 in0.3 mm
04:22 PM 76.3°F24.6°C 71.1°F21.7°C 84% 3.7 mph S6.0 kmh S 8.0 mph12.9 kmh 29.95 in1014.2 mb - 0.00 in0.0 mm 0.01 in0.3 mm
04:12 PM 74.8°F23.8°C 70.3°F21.3°C 86% 1.7 mph SW2.7 kmh SW 5.0 mph8.0 kmh 29.96 in1014.6 mb - 0.00 in0.0 mm 0.01 in0.3 mm
04:02 PM 75.3°F24.1°C 69.8°F21.0°C 83% 2.8 mph S4.5 kmh S 6.0 mph9.7 kmh 29.96 in1014.6 mb - 0.00 in0.0 mm 0.01 in0.3 mm
03:52 PM 77.2°F25.1°C 69.9°F21.1°C 78% 6.6 mph S10.6 kmh S 9.0 mph14.5 kmh 29.95 in1014.2 mb - 0.00 in0.0 mm 0.01 in0.3 mm
03:42 PM 78.3°F25.7°C 69.3°F20.7°C 74% 2.1 mph S3.4 kmh S 6.0 mph9.7 kmh 29.95 in1014.2 mb - 0.00 in0.0 mm 0.01 in0.3 mm
03:32 PM 78.6°F25.9°C 68.0°F20.0°C 70% 4.5 mph S7.2 kmh S 12.0 mph19.3 kmh 29.95 in1014.2 mb - 0.00 in0.0 mm 0.01 in0.3 mm
03:22 PM 77.9°F25.5°C 68.2°F20.1°C 72% 3.9 mph S6.3 kmh S 9.0 mph14.5 kmh 29.95 in1014.2 mb - 0.00 in0.0 mm 0.01 in0.3 mm
03:12 PM 77.2°F25.1°C 71.3°F21.8°C 82% 2.0 mph SW3.2 kmh SW 10.0 mph16.1 kmh 29.96 in1014.6 mb - 0.00 in0.0 mm 0.01 in0.3 mm
03:02 PM 76.8°F24.9°C 70.2°F21.2°C 80% 2.7 mph SSW4.3 kmh SSW 3.0 mph4.8 kmh 29.96 in1014.6 mb - 0.00 in0.0 mm 0.01 in0.3 mm
02:52 PM 77.2°F25.1°C 70.2°F21.2°C 79% 1.5 mph SSW2.4 kmh SSW 5.0 mph8.0 kmh 29.97 in1014.9 mb - 0.00 in0.0 mm 0.01 in0.3 mm
02:42 PM 76.6°F24.8°C 67.7°F19.8°C 74% 6.7 mph S10.8 kmh S 14.0 mph22.5 kmh 29.97 in1014.9 mb - 0.00 in0.0 mm 0.01 in0.3 mm
02:32 PM 76.6°F24.8°C 69.2°F20.7°C 78% 2.3 mph SSW3.7 kmh SSW 12.0 mph19.3 kmh 29.96 in1014.6 mb - 0.00 in0.0 mm 0.01 in0.3 mm
02:22 PM 76.8°F24.9°C 69.4°F20.8°C 78% 0.2 mph SSW0.3 kmh SSW 1.0 mph1.6 kmh 29.96 in1014.6 mb - 0.01 in0.3 mm 0.01 in0.3 mm
02:12 PM 79.4°F26.3°C 68.3°F20.2°C 69% 1.3 mph SW2.1 kmh SW 4.0 mph6.4 kmh 29.96 in1014.6 mb - 0.01 in0.3 mm 0.01 in0.3 mm
02:02 PM 80.2°F26.8°C 68.7°F20.4°C 68% 3.2 mph S5.1 kmh S 5.0 mph8.0 kmh 29.97 in1014.9 mb - 0.00 in0.0 mm 0.00 in0.0 mm
01:52 PM 80.3°F26.8°C 68.3°F20.2°C 67% 4.1 mph SSW6.6 kmh SSW 7.0 mph11.3 kmh 29.97 in1014.9 mb - 0.00 in0.0 mm 0.00 in0.0 mm
01:42 PM 82.3°F27.9°C 69.8°F21.0°C 66% 3.5 mph SSE5.6 kmh SSE 5.0 mph8.0 kmh 29.98 in1015.2 mb - 0.00 in0.0 mm 0.00 in0.0 mm
01:32 PM 81.2°F27.3°C 69.2°F20.7°C 67% 3.0 mph S4.8 kmh S 6.0 mph9.7 kmh 29.98 in1015.2 mb - 0.00 in0.0 mm 0.00 in0.0 mm
01:22 PM 81.6°F27.6°C 71.3°F21.8°C 71% 2.0 mph S3.2 kmh S 7.0 mph11.3 kmh 29.99 in1015.6 mb - 0.00 in0.0 mm 0.00 in0.0 mm
01:12 PM 81.1°F27.3°C 70.8°F21.6°C 71% 5.0 mph S8.0 kmh S 9.0 mph14.5 kmh 29.99 in1015.6 mb - 0.00 in0.0 mm 0.00 in0.0 mm
01:02 PM 80.1°F26.7°C 71.5°F21.9°C 75% 4.2 mph SSE6.8 kmh SSE 12.0 mph19.3 kmh 30.00 in1015.9 mb - 0.00 in0.0 mm 0.00 in0.0 mm
12:52 PM 78.6°F25.9°C 71.6°F22.0°C 79% 1.0 mph S1.6 kmh S 6.0 mph9.7 kmh 30.01 in1016.3 mb - 0.00 in0.0 mm 0.00 in0.0 mm
12:42 PM 78.6°F25.9°C 72.2°F22.3°C 81% 3.5 mph S5.6 kmh S 7.0 mph11.3 kmh 30.01 in1016.3 mb - 0.00 in0.0 mm 0.00 in0.0 mm
12:32 PM 77.4°F25.2°C 70.4°F21.3°C 79% 1.5 mph SW2.4 kmh SW 4.0 mph6.4 kmh 30.01 in1016.3 mb - 0.00 in0.0 mm 0.00 in0.0 mm
12:22 PM 77.2°F25.1°C 70.5°F21.4°C 80% 1.3 mph S2.1 kmh S 6.0 mph9.7 kmh 30.02 in1016.6 mb - 0.00 in0.0 mm 0.00 in0.0 mm
12:12 PM 76.3°F24.6°C 70.0°F21.1°C 81% 2.9 mph SE4.7 kmh SE 6.0 mph9.7 kmh 30.02 in1016.6 mb - 0.00 in0.0 mm 0.00 in0.0 mm
12:02 PM 76.0°F24.4°C 70.1°F21.2°C 82% 2.1 mph S3.4 kmh S 10.0 mph16.1 kmh 30.03 in1016.9 mb - 0.00 in0.0 mm 0.00 in0.0 mm
11:52 AM 76.3°F24.6°C 69.3°F20.7°C 79% 3.7 mph S6.0 kmh S 12.0 mph19.3 kmh 30.03 in1016.9 mb - 0.00 in0.0 mm 0.00 in0.0 mm
11:42 AM 77.7°F25.4°C 69.9°F21.1°C 77% 5.9 mph S9.5 kmh S 9.0 mph14.5 kmh 30.03 in1016.9 mb - 0.00 in0.0 mm 0.00 in0.0 mm
11:32 AM 77.4°F25.2°C 70.0°F21.1°C 78% 2.1 mph S3.4 kmh S 7.0 mph11.3 kmh 30.03 in1016.9 mb - 0.00 in0.0 mm 0.00 in0.0 mm
11:22 AM 76.8°F24.9°C 70.9°F21.6°C 82% 3.2 mph SSE5.1 kmh SSE 5.0 mph8.0 kmh 30.03 in1016.9 mb - 0.00 in0.0 mm 0.00 in0.0 mm
11:12 AM 75.8°F24.3°C 70.3°F21.3°C 83% 4.6 mph S7.4 kmh S 9.0 mph14.5 kmh 30.03 in1016.9 mb - 0.00 in0.0 mm 0.00 in0.0 mm
11:02 AM 74.7°F23.7°C 69.5°F20.8°C 84% 3.0 mph S4.8 kmh S 8.0 mph12.9 kmh 30.03 in1016.9 mb - 0.00 in0.0 mm 0.00 in0.0 mm
10:52 AM 74.0°F23.3°C 68.9°F20.5°C 84% 2.6 mph SSW4.2 kmh SSW 4.0 mph6.4 kmh 30.03 in1016.9 mb - 0.00 in0.0 mm 0.00 in0.0 mm
10:42 AM 74.2°F23.4°C 69.1°F20.6°C 84% 3.7 mph SSW6.0 kmh SSW 6.0 mph9.7 kmh 30.03 in1016.9 mb - 0.00 in0.0 mm 0.00 in0.0 mm
10:32 AM 73.9°F23.3°C 69.1°F20.6°C 85% 1.3 mph SW2.1 kmh SW 4.0 mph6.4 kmh 30.03 in1016.9 mb - 0.00 in0.0 mm 0.00 in0.0 mm
10:22 AM 73.3°F22.9°C 68.2°F20.1°C 84% 5.7 mph SW9.2 kmh SW 11.0 mph17.7 kmh 30.03 in1016.9 mb - 0.00 in0.0 mm 0.00 in0.0 mm
10:12 AM 73.7°F23.2°C 69.2°F20.7°C 86% 1.2 mph S1.9 kmh S 2.0 mph3.2 kmh 30.03 in1016.9 mb - 0.00 in0.0 mm 0.00 in0.0 mm
10:02 AM 73.7°F23.2°C 68.6°F20.3°C 84% 2.3 mph S3.7 kmh S 8.0 mph12.9 kmh 30.04 in1017.3 mb - 0.00 in0.0 mm 0.00 in0.0 mm
09:52 AM 73.9°F23.3°C 68.8°F20.4°C 84% 2.7 mph S4.3 kmh S 5.0 mph8.0 kmh 30.04 in1017.3 mb - 0.00 in0.0 mm 0.00 in0.0 mm
09:42 AM 73.4°F23.0°C 68.3°F20.2°C 84% 5.5 mph S8.9 kmh S 11.0 mph17.7 kmh 30.04 in1017.3 mb - 0.00 in0.0 mm 0.00 in0.0 mm
09:32 AM 73.7°F23.2°C 68.9°F20.5°C 85% 2.4 mph S3.9 kmh S 6.0 mph9.7 kmh 30.04 in1017.3 mb - 0.00 in0.0 mm 0.00 in0.0 mm
09:22 AM 73.9°F23.3°C 68.7°F20.4°C 84% 3.8 mph S6.1 kmh S 7.0 mph11.3 kmh 30.04 in1017.3 mb - 0.00 in0.0 mm 0.00 in0.0 mm
09:12 AM 73.2°F22.9°C 68.8°F20.4°C 86% 2.7 mph SSE4.3 kmh SSE 4.0 mph6.4 kmh 30.05 in1017.6 mb - 0.00 in0.0 mm 0.00 in0.0 mm
09:02 AM 73.5°F23.1°C 68.7°F20.4°C 85% 3.3 mph SSW5.3 kmh SSW 5.0 mph8.0 kmh 30.05 in1017.6 mb - 0.00 in0.0 mm 0.00 in0.0 mm
08:52 AM 72.7°F22.6°C 68.9°F20.5°C 88% 3.8 mph SSW6.1 kmh SSW 7.0 mph11.3 kmh 30.05 in1017.6 mb - 0.00 in0.0 mm 0.00 in0.0 mm
08:42 AM 72.1°F22.3°C 68.3°F20.2°C 88% 3.0 mph S4.8 kmh S 7.0 mph11.3 kmh 30.05 in1017.6 mb - 0.00 in0.0 mm 0.00 in0.0 mm
08:32 AM 71.7°F22.1°C 68.3°F20.2°C 89% 5.5 mph SSE8.9 kmh SSE 11.0 mph17.7 kmh 30.05 in1017.6 mb - 0.00 in0.0 mm 0.00 in0.0 mm
08:22 AM 71.8°F22.1°C 68.7°F20.4°C 90% 0.9 mph S1.4 kmh S 3.0 mph4.8 kmh 30.05 in1017.6 mb - 0.00 in0.0 mm 0.00 in0.0 mm
08:12 AM 70.8°F21.6°C 68.4°F20.2°C 92% 0.1 mph SSW0.2 kmh SSW 1.0 mph1.6 kmh 30.05 in1017.6 mb - 0.00 in0.0 mm 0.00 in0.0 mm
08:02 AM 69.3°F20.7°C 68.2°F20.1°C 96% 1.1 mph SSE1.8 kmh SSE 1.0 mph1.6 kmh 30.05 in1017.6 mb - 0.00 in0.0 mm 0.00 in0.0 mm
07:52 AM 68.8°F20.4°C 67.9°F19.9°C 97% 0.4 mph S0.6 kmh S 2.0 mph3.2 kmh 30.05 in1017.6 mb - 0.00 in0.0 mm 0.00 in0.0 mm
07:42 AM 68.6°F20.3°C 67.7°F19.8°C 97% 1.4 mph S2.3 kmh S 4.0 mph6.4 kmh 30.05 in1017.6 mb - 0.00 in0.0 mm 0.00 in0.0 mm
07:32 AM 68.3°F20.2°C 67.4°F19.7°C 97% 0.9 mph S1.4 kmh S 5.0 mph8.0 kmh 30.06 in1017.9 mb - 0.00 in0.0 mm 0.00 in0.0 mm
07:22 AM 68.1°F20.1°C 67.2°F19.6°C 97% 0.2 mph S0.3 kmh S 2.0 mph3.2 kmh 30.06 in1017.9 mb - 0.00 in0.0 mm 0.00 in0.0 mm
07:12 AM 68.1°F20.1°C 67.2°F19.6°C 97% 0.8 mph S1.3 kmh S 2.0 mph3.2 kmh 30.05 in1017.6 mb - 0.00 in0.0 mm 0.00 in0.0 mm
07:02 AM 67.9°F19.9°C 67.0°F19.4°C 97% 0.4 mph SSW0.6 kmh SSW 1.0 mph1.6 kmh 30.05 in1017.6 mb - 0.00 in0.0 mm 0.00 in0.0 mm
06:52 AM 67.8°F19.9°C 66.9°F19.4°C 97% 0.2 mph S0.3 kmh S 5.0 mph8.0 kmh 30.05 in1017.6 mb - 0.00 in0.0 mm 0.00 in0.0 mm
06:42 AM 67.8°F19.9°C 66.9°F19.4°C 97% 0.2 mph S0.3 kmh S 2.0 mph3.2 kmh 30.05 in1017.6 mb - 0.00 in0.0 mm 0.00 in0.0 mm
06:32 AM 67.6°F19.8°C 66.7°F19.3°C 97% 1.8 mph S2.9 kmh S 3.0 mph4.8 kmh 30.05 in1017.6 mb - 0.00 in0.0 mm 0.00 in0.0 mm
06:22 AM 67.5°F19.7°C 66.7°F19.3°C 97% 2.0 mph SW3.2 kmh SW 3.0 mph4.8 kmh 30.05 in1017.6 mb - 0.00 in0.0 mm 0.00 in0.0 mm
06:12 AM 67.4°F19.7°C 66.5°F19.2°C 97% 0.5 mph S0.8 kmh S 4.0 mph6.4 kmh 30.05 in1017.6 mb - 0.00 in0.0 mm 0.00 in0.0 mm
06:02 AM 67.4°F19.7°C 66.5°F19.2°C 97% 1.3 mph SSE2.1 kmh SSE 4.0 mph6.4 kmh 30.05 in1017.6 mb - 0.00 in0.0 mm 0.00 in0.0 mm
05:52 AM 67.3°F19.6°C 66.4°F19.1°C 97% 0.5 mph SE0.8 kmh SE 4.0 mph6.4 kmh 30.04 in1017.3 mb - 0.00 in0.0 mm 0.00 in0.0 mm
05:42 AM 67.3°F19.6°C 66.4°F19.1°C 97% 1.8 mph S2.9 kmh S 5.0 mph8.0 kmh 30.04 in1017.3 mb - 0.00 in0.0 mm 0.00 in0.0 mm
05:32 AM 67.3°F19.6°C 66.1°F18.9°C 96% 0.8 mph S1.3 kmh S 3.0 mph4.8 kmh 30.05 in1017.6 mb - 0.00 in0.0 mm 0.00 in0.0 mm
05:22 AM 67.3°F19.6°C 66.1°F18.9°C 96% 1.8 mph S2.9 kmh S 5.0 mph8.0 kmh 30.04 in1017.3 mb - 0.00 in0.0 mm 0.00 in0.0 mm
05:12 AM 67.4°F19.7°C 65.9°F18.8°C 95% 1.2 mph S1.9 kmh S 4.0 mph6.4 kmh 30.04 in1017.3 mb - 0.00 in0.0 mm 0.00 in0.0 mm
05:02 AM 67.6°F19.8°C 66.1°F18.9°C 95% 0.9 mph S1.4 kmh S 2.0 mph3.2 kmh 30.04 in1017.3 mb - 0.00 in0.0 mm 0.00 in0.0 mm
04:52 AM 67.8°F19.9°C 66.0°F18.9°C 94% 1.5 mph S2.4 kmh S 5.0 mph8.0 kmh 30.04 in1017.3 mb - 0.00 in0.0 mm 0.00 in0.0 mm
04:42 AM 67.9°F19.9°C 66.1°F18.9°C 94% 0.5 mph S0.8 kmh S 1.0 mph1.6 kmh 30.05 in1017.6 mb - 0.00 in0.0 mm 0.00 in0.0 mm
04:32 AM 68.1°F20.1°C 66.3°F19.1°C 94% 1.5 mph S2.4 kmh S 3.0 mph4.8 kmh 30.05 in1017.6 mb - 0.00 in0.0 mm 0.00 in0.0 mm
04:22 AM 68.3°F20.2°C 66.5°F19.2°C 94% 2.8 mph S4.5 kmh S 7.0 mph11.3 kmh 30.05 in1017.6 mb - 0.00 in0.0 mm 0.00 in0.0 mm
04:12 AM 68.4°F20.2°C 66.6°F19.2°C 94% 0.3 mph S0.5 kmh S 1.0 mph1.6 kmh 30.05 in1017.6 mb - 0.00 in0.0 mm 0.00 in0.0 mm
04:02 AM 68.4°F20.2°C 66.6°F19.2°C 94% 0.9 mph S1.4 kmh S 2.0 mph3.2 kmh 30.05 in1017.6 mb - 0.00 in0.0 mm 0.00 in0.0 mm
03:52 AM 68.4°F20.2°C 66.3°F19.1°C 93% 2.0 mph S3.2 kmh S 5.0 mph8.0 kmh 30.05 in1017.6 mb - 0.00 in0.0 mm 0.00 in0.0 mm
03:42 AM 68.6°F20.3°C 66.5°F19.2°C 93% 1.0 mph S1.6 kmh S 6.0 mph9.7 kmh 30.05 in1017.6 mb - 0.00 in0.0 mm 0.00 in0.0 mm
03:32 AM 68.6°F20.3°C 66.5°F19.2°C 93% 1.9 mph S3.1 kmh S 9.0 mph14.5 kmh 30.05 in1017.6 mb - 0.00 in0.0 mm 0.00 in0.0 mm
03:22 AM 68.4°F20.2°C 66.3°F19.1°C 93% 2.9 mph S4.7 kmh S 5.0 mph8.0 kmh 30.05 in1017.6 mb - 0.00 in0.0 mm 0.00 in0.0 mm
03:12 AM 68.4°F20.2°C 66.3°F19.1°C 93% 1.0 mph SSE1.6 kmh SSE 3.0 mph4.8 kmh 30.05 in1017.6 mb - 0.00 in0.0 mm 0.00 in0.0 mm
03:02 AM 68.4°F20.2°C 66.3°F19.1°C 93% 2.0 mph SE3.2 kmh SE 6.0 mph9.7 kmh 30.05 in1017.6 mb - 0.00 in0.0 mm 0.00 in0.0 mm
02:52 AM 68.4°F20.2°C 66.0°F18.9°C 92% 2.6 mph S4.2 kmh S 8.0 mph12.9 kmh 30.06 in1017.9 mb - 0.00 in0.0 mm 0.00 in0.0 mm
02:42 AM 68.4°F20.2°C 66.0°F18.9°C 92% 2.5 mph SW4.0 kmh SW 5.0 mph8.0 kmh 30.06 in1017.9 mb - 0.00 in0.0 mm 0.00 in0.0 mm
02:32 AM 68.3°F20.2°C 65.9°F18.8°C 92% 0.8 mph SW1.3 kmh SW 3.0 mph4.8 kmh 30.06 in1017.9 mb - 0.00 in0.0 mm 0.00 in0.0 mm
02:22 AM 68.3°F20.2°C 65.6°F18.7°C 91% 1.3 mph SSW2.1 kmh SSW 4.0 mph6.4 kmh 30.06 in1017.9 mb - 0.00 in0.0 mm 0.00 in0.0 mm
02:12 AM 68.1°F20.1°C 65.4°F18.6°C 91% 1.3 mph S2.1 kmh S 4.0 mph6.4 kmh 30.07 in1018.3 mb - 0.00 in0.0 mm 0.00 in0.0 mm
02:02 AM 68.1°F20.1°C 65.1°F18.4°C 90% 2.6 mph S4.2 kmh S 5.0 mph8.0 kmh 30.07 in1018.3 mb - 0.00 in0.0 mm 0.00 in0.0 mm
01:52 AM 68.1°F20.1°C 65.1°F18.4°C 90% 1.5 mph SSE2.4 kmh SSE 4.0 mph6.4 kmh 30.07 in1018.3 mb - 0.00 in0.0 mm 0.00 in0.0 mm
01:42 AM 68.1°F20.1°C 64.7°F18.2°C 89% 0.6 mph S1.0 kmh S 3.0 mph4.8 kmh 30.07 in1018.3 mb - 0.00 in0.0 mm 0.00 in0.0 mm
01:32 AM 68.1°F20.1°C 64.4°F18.0°C 88% 0.4 mph SSE0.6 kmh SSE -- 30.08 in1018.6 mb - 0.00 in0.0 mm 0.00 in0.0 mm
01:22 AM 68.1°F20.1°C 64.1°F17.8°C 87% 0.4 mph SE0.6 kmh SE 1.0 mph1.6 kmh 30.08 in1018.6 mb - 0.00 in0.0 mm 0.00 in0.0 mm
01:12 AM 68.3°F20.2°C 64.3°F17.9°C 87% 1.7 mph S2.7 kmh S 5.0 mph8.0 kmh 30.08 in1018.6 mb - 0.00 in0.0 mm 0.00 in0.0 mm
01:02 AM 68.3°F20.2°C 63.9°F17.7°C 86% 1.4 mph S2.3 kmh S 3.0 mph4.8 kmh 30.08 in1018.6 mb - 0.00 in0.0 mm 0.00 in0.0 mm
12:52 AM 68.4°F20.2°C 63.7°F17.6°C 85% 1.5 mph S2.4 kmh S 5.0 mph8.0 kmh 30.08 in1018.6 mb - 0.00 in0.0 mm 0.00 in0.0 mm
12:42 AM 68.4°F20.2°C 63.7°F17.6°C 85% 1.1 mph S1.8 kmh S 2.0 mph3.2 kmh 30.08 in1018.6 mb - 0.00 in0.0 mm 0.00 in0.0 mm
12:32 AM 68.4°F20.2°C 63.7°F17.6°C 85% 1.6 mph S2.6 kmh S 3.0 mph4.8 kmh 30.09 in1019.0 mb - 0.00 in0.0 mm 0.00 in0.0 mm
12:22 AM 68.4°F20.2°C 63.7°F17.6°C 85% 1.0 mph S1.6 kmh S 2.0 mph3.2 kmh 30.09 in1019.0 mb - 0.00 in0.0 mm 0.00 in0.0 mm
12:12 AM 68.4°F20.2°C 63.7°F17.6°C 85% 1.7 mph SSE2.7 kmh SSE 4.0 mph6.4 kmh 30.09 in1019.0 mb - 0.00 in0.0 mm 0.00 in0.0 mm
12:02 AM 68.4°F20.2°C 63.3°F17.4°C 84% 3.4 mph S5.5 kmh S 7.0 mph11.3 kmh 30.09 in1019.0 mb - 0.00 in0.0 mm 0.00 in0.0 mm